createdAt,value
2018-09-03T00:00:29.192Z,16.40
2018-09-03T00:02:57.393Z,16.40
2018-09-03T00:05:26.722Z,16.40
2018-09-03T00:07:55.046Z,16.40
2018-09-03T00:10:23.274Z,16.40
2018-09-03T00:12:51.517Z,16.30
2018-09-03T00:15:20.352Z,16.40
2018-09-03T00:17:49.940Z,16.40
2018-09-03T00:20:19.254Z,16.30
2018-09-03T00:22:47.834Z,16.30
2018-09-03T00:25:16.026Z,16.30
2018-09-03T00:27:44.509Z,16.30
2018-09-03T00:30:14.027Z,16.30
2018-09-03T00:32:47.651Z,16.30
2018-09-03T00:39:37.187Z,16.40
2018-09-03T00:42:10.741Z,16.40
2018-09-03T00:44:44.195Z,16.40
2018-09-03T00:47:12.654Z,16.30
2018-09-03T00:49:41.222Z,16.40
2018-09-03T00:52:09.455Z,16.30
2018-09-03T00:54:38.389Z,16.30
2018-09-03T00:57:06.588Z,16.20
2018-09-03T00:59:34.862Z,16.20
2018-09-03T01:02:03.365Z,16.20
2018-09-03T01:04:31.590Z,16.10
2018-09-03T01:06:59.822Z,16.20
2018-09-03T01:09:28.042Z,16.20
2018-09-03T01:11:56.257Z,16.30
2018-09-03T01:14:24.905Z,16.30
2018-09-03T01:16:53.699Z,16.30
2018-09-03T01:19:24.159Z,16.30
2018-09-03T01:21:57.347Z,16.30
2018-09-03T01:24:25.581Z,16.30
2018-09-03T01:26:53.818Z,16.40
2018-09-03T01:29:22.430Z,16.40
2018-09-03T01:31:54.837Z,16.40
2018-09-03T01:34:23.904Z,16.40
2018-09-03T01:36:52.158Z,16.40
2018-09-03T01:39:20.403Z,16.40
2018-09-03T01:41:48.757Z,16.40
2018-09-03T01:44:16.983Z,16.40
2018-09-03T01:46:45.214Z,16.40
2018-09-03T01:49:13.513Z,16.50
2018-09-03T01:51:41.758Z,16.40
2018-09-03T01:54:09.981Z,16.50
2018-09-03T01:56:38.262Z,16.50
2018-09-03T01:59:06.509Z,16.50
2018-09-03T02:01:34.718Z,16.60
2018-09-03T02:04:02.966Z,16.60
2018-09-03T02:06:31.838Z,16.60
2018-09-03T02:09:00.040Z,16.60
2018-09-03T02:11:28.357Z,16.60
2018-09-03T02:13:56.586Z,16.60
2018-09-03T02:16:24.819Z,16.60
2018-09-03T02:18:53.307Z,16.60
2018-09-03T02:21:21.628Z,16.60
2018-09-03T02:23:50.036Z,16.60
2018-09-03T02:26:18.378Z,16.60
2018-09-03T02:28:46.618Z,16.60
2018-09-03T02:31:14.846Z,16.60
2018-09-03T02:33:43.214Z,16.60
2018-09-03T02:36:11.438Z,16.70
2018-09-03T02:38:39.648Z,16.70
2018-09-03T02:41:08.299Z,16.70
2018-09-03T02:43:36.531Z,16.60
2018-09-03T02:46:04.950Z,16.70
2018-09-03T02:48:33.661Z,16.70
2018-09-03T02:51:02.014Z,16.70
2018-09-03T02:53:30.220Z,16.70
2018-09-03T02:55:58.662Z,16.70
2018-09-03T02:58:26.905Z,16.70
2018-09-03T03:00:55.147Z,16.60
2018-09-03T03:03:23.384Z,16.70
2018-09-03T03:05:51.646Z,16.60
2018-09-03T03:08:19.882Z,16.60
2018-09-03T03:10:48.118Z,16.70
2018-09-03T03:13:16.336Z,16.70
2018-09-03T03:15:44.571Z,16.60
2018-09-03T03:18:12.911Z,16.60
2018-09-03T03:20:42.181Z,16.60
2018-09-03T03:23:10.620Z,16.60
2018-09-03T03:25:39.123Z,16.60
2018-09-03T03:28:07.344Z,16.60
2018-09-03T03:30:35.561Z,16.60
2018-09-03T03:33:03.878Z,16.60
2018-09-03T03:35:32.101Z,16.60
2018-09-03T03:38:00.462Z,16.60
2018-09-03T03:40:29.086Z,16.60
2018-09-03T03:42:57.301Z,16.60
2018-09-03T03:45:25.514Z,16.60
2018-09-03T03:47:53.938Z,16.60
2018-09-03T03:50:22.172Z,16.60
2018-09-03T03:52:50.383Z,16.60
2018-09-03T03:55:18.596Z,16.60
2018-09-03T03:57:46.804Z,16.60
2018-09-03T04:00:15.022Z,16.50
2018-09-03T04:02:43.333Z,16.50
2018-09-03T04:05:11.671Z,16.60
2018-09-03T04:07:39.885Z,16.50
2018-09-03T04:10:08.322Z,16.60
2018-09-03T04:12:36.537Z,16.60
2018-09-03T04:15:04.882Z,16.60
2018-09-03T04:17:33.408Z,16.60
2018-09-03T04:20:03.140Z,16.60
2018-09-03T04:22:32.038Z,16.60
2018-09-03T04:25:02.627Z,16.60
2018-09-03T04:27:31.244Z,16.50
2018-09-03T04:29:59.461Z,16.60
2018-09-03T04:32:27.978Z,16.60
2018-09-03T04:34:56.254Z,16.60
2018-09-03T04:37:24.476Z,16.60
2018-09-03T04:39:52.782Z,16.60
2018-09-03T04:42:21.015Z,16.60
2018-09-03T04:44:49.240Z,16.50
2018-09-03T04:47:17.573Z,16.60
2018-09-03T04:49:45.818Z,16.60
2018-09-03T04:52:14.025Z,16.60
2018-09-03T04:54:42.327Z,16.50
2018-09-03T04:57:10.504Z,16.50
2018-09-03T04:59:38.771Z,16.60
2018-09-03T05:02:07.051Z,16.60
2018-09-03T05:04:35.394Z,16.60
2018-09-03T05:07:03.656Z,16.60
2018-09-03T05:09:31.874Z,16.60
2018-09-03T05:12:00.073Z,16.60
2018-09-03T05:14:28.309Z,16.50
2018-09-03T05:16:56.838Z,16.50
2018-09-03T05:19:25.673Z,16.50
2018-09-03T05:21:53.925Z,16.60
2018-09-03T05:24:22.777Z,16.60
2018-09-03T05:26:51.130Z,16.60
2018-09-03T05:29:19.468Z,16.60
2018-09-03T05:31:47.782Z,16.50
2018-09-03T05:34:15.997Z,16.60
2018-09-03T05:36:44.254Z,16.60
2018-09-03T05:39:13.591Z,16.60
2018-09-03T05:41:41.818Z,16.60
2018-09-03T05:44:10.457Z,16.60
2018-09-03T05:46:39.610Z,16.60
2018-09-03T05:49:07.911Z,16.70
2018-09-03T05:51:36.271Z,16.60
2018-09-03T05:54:06.045Z,16.60
2018-09-03T05:56:34.257Z,16.70
2018-09-03T05:59:02.552Z,16.70
2018-09-03T06:01:30.762Z,16.70
2018-09-03T06:03:59.798Z,16.80
2018-09-03T06:06:27.998Z,16.70
2018-09-03T06:08:56.277Z,16.80
2018-09-03T06:11:24.484Z,16.80
2018-09-03T06:13:52.697Z,16.80
2018-09-03T06:16:22.197Z,16.90
2018-09-03T06:18:50.978Z,16.90
2018-09-03T06:21:19.209Z,16.90
2018-09-03T06:23:47.671Z,16.90
2018-09-03T06:26:15.893Z,17.00
2018-09-03T06:28:44.175Z,17.00
2018-09-03T06:31:12.530Z,16.90
2018-09-03T06:33:40.966Z,17.00
2018-09-03T06:36:09.186Z,17.00
2018-09-03T06:38:37.685Z,17.00
2018-09-03T06:41:06.029Z,17.10
2018-09-03T06:43:34.258Z,17.10
2018-09-03T06:46:02.574Z,17.10
2018-09-03T06:48:30.798Z,17.10
2018-09-03T06:50:59.019Z,17.20
2018-09-03T06:53:27.353Z,17.20
2018-09-03T06:55:55.559Z,17.20
2018-09-03T06:58:23.783Z,17.20
2018-09-03T07:00:52.274Z,17.30
2018-09-03T07:03:20.465Z,17.30
2018-09-03T07:05:48.661Z,17.30
2018-09-03T07:08:16.969Z,17.30
2018-09-03T07:10:45.161Z,17.30
2018-09-03T07:13:13.374Z,17.40
2018-09-03T07:15:41.756Z,17.40
2018-09-03T07:18:09.954Z,17.40
2018-09-03T07:20:38.153Z,17.40
2018-09-03T07:23:06.520Z,17.40
2018-09-03T07:25:40.317Z,17.40
2018-09-03T07:28:08.893Z,17.40
2018-09-03T07:30:37.362Z,17.50
2018-09-03T07:33:06.635Z,17.60
2018-09-03T07:35:35.453Z,17.70
2018-09-03T07:38:03.638Z,18.00
2018-09-03T07:40:31.906Z,18.30
2018-09-03T07:43:00.185Z,18.60
2018-09-03T07:45:28.385Z,18.80
2018-09-03T07:47:56.589Z,18.50
2018-09-03T07:50:24.836Z,18.60
2018-09-03T07:52:53.145Z,18.60
2018-09-03T07:55:21.675Z,18.70
2018-09-03T07:57:50.306Z,18.70
2018-09-03T08:00:18.540Z,18.70
2018-09-03T08:02:46.749Z,18.70
2018-09-03T08:05:15.114Z,18.60
2018-09-03T08:07:43.317Z,18.60
2018-09-03T08:10:11.523Z,18.70
2018-09-03T08:12:40.375Z,18.80
2018-09-03T08:15:08.782Z,18.80
2018-09-03T08:17:36.998Z,18.80
2018-09-03T08:20:05.332Z,18.80
2018-09-03T08:22:33.478Z,18.90
2018-09-03T08:25:01.669Z,18.90
2018-09-03T08:27:29.954Z,18.90
2018-09-03T08:29:58.174Z,19.00
2018-09-03T08:32:26.453Z,19.00
2018-09-03T08:34:54.948Z,19.00
2018-09-03T08:37:23.166Z,19.10
2018-09-03T08:39:51.444Z,19.10
2018-09-03T08:42:19.728Z,19.10
2018-09-03T08:44:48.069Z,19.20
2018-09-03T08:47:16.361Z,19.30
2018-09-03T08:49:46.296Z,19.30
2018-09-03T08:52:15.148Z,19.40
2018-09-03T08:54:44.533Z,19.40
2018-09-03T08:57:12.986Z,19.30
2018-09-03T08:59:41.220Z,19.30
2018-09-03T09:02:09.602Z,19.20
2018-09-03T09:04:38.074Z,19.20
2018-09-03T09:07:06.434Z,19.10
2018-09-03T09:09:35.542Z,19.10
2018-09-03T09:12:04.245Z,19.20
2018-09-03T09:14:32.469Z,19.20
2018-09-03T09:17:00.775Z,19.20
2018-09-03T09:19:29.823Z,19.30
2018-09-03T09:21:58.118Z,19.30
2018-09-03T09:24:27.502Z,19.30
2018-09-03T09:26:56.266Z,19.50
2018-09-03T09:29:24.531Z,19.50
2018-09-03T09:31:52.750Z,19.60
2018-09-03T09:34:21.187Z,19.50
2018-09-03T09:36:49.416Z,19.50
2018-09-03T09:39:17.691Z,19.60
2018-09-03T09:41:46.269Z,19.70
2018-09-03T09:44:14.525Z,19.70
2018-09-03T09:46:43.241Z,19.80
2018-09-03T09:49:11.648Z,19.80
2018-09-03T09:51:39.902Z,19.80
2018-09-03T09:54:08.114Z,19.80
2018-09-03T09:56:36.479Z,19.70
2018-09-03T09:59:04.725Z,19.60
2018-09-03T10:01:38.286Z,19.70
2018-09-03T10:04:06.958Z,19.70
2018-09-03T10:06:35.177Z,19.60
2018-09-03T10:09:05.183Z,19.60
2018-09-03T10:11:33.454Z,19.50
2018-09-03T10:14:02.204Z,19.70
2018-09-03T10:16:30.970Z,19.80
2018-09-03T10:18:59.201Z,20.20
2018-09-03T10:21:28.150Z,20.60
2018-09-03T10:23:56.689Z,20.80
2018-09-03T10:26:24.997Z,21.00
2018-09-03T10:28:53.210Z,21.10
2018-09-03T10:31:21.673Z,21.10
2018-09-03T10:33:49.937Z,21.00
2018-09-03T10:36:18.720Z,21.00
2018-09-03T10:38:47.582Z,20.90
2018-09-03T10:41:15.826Z,20.90
2018-09-03T10:43:44.047Z,20.90
2018-09-03T10:46:12.337Z,20.90
2018-09-03T10:48:40.544Z,20.80
2018-09-03T10:51:08.802Z,20.70
2018-09-03T10:53:37.825Z,20.70
2018-09-03T10:56:08.909Z,20.70
2018-09-03T10:58:39.610Z,20.70
2018-09-03T11:01:08.459Z,20.80
2018-09-03T11:03:37.624Z,20.90
2018-09-03T11:06:08.674Z,21.00
2018-09-03T11:08:37.074Z,21.10
2018-09-03T11:11:05.478Z,21.20
2018-09-03T11:13:34.717Z,21.20
2018-09-03T11:16:03.214Z,21.10
2018-09-03T11:18:35.308Z,21.10
2018-09-03T11:21:06.445Z,21.10
2018-09-03T11:23:34.774Z,21.20
2018-09-03T11:26:03.886Z,21.50
2018-09-03T11:28:36.834Z,21.80
2018-09-03T11:31:06.436Z,22.00
2018-09-03T11:33:35.378Z,21.80
2018-09-03T11:36:05.985Z,21.50
2018-09-03T11:38:35.863Z,21.40
2018-09-03T11:41:05.783Z,21.20
2018-09-03T11:43:35.681Z,21.20
2018-09-03T11:46:04.246Z,21.10
2018-09-03T11:48:33.860Z,21.00
2018-09-03T11:51:04.239Z,21.10
2018-09-03T11:53:34.489Z,21.10
2018-09-03T11:56:03.601Z,21.10
2018-09-03T11:58:32.552Z,21.20
2018-09-03T12:01:01.308Z,21.10
2018-09-03T12:03:29.671Z,21.10
2018-09-03T12:05:58.284Z,21.20
2018-09-03T12:08:26.715Z,21.30
2018-09-03T12:10:57.908Z,21.20
2018-09-03T12:13:26.288Z,21.20
2018-09-03T12:16:26.063Z,21.30
2018-09-03T12:18:57.910Z,21.20
2018-09-03T12:21:26.270Z,21.10
2018-09-03T12:23:55.279Z,21.20
2018-09-03T12:26:24.868Z,21.20
2018-09-03T12:28:53.687Z,21.20
2018-09-03T12:31:23.036Z,21.20
2018-09-03T12:33:51.355Z,21.20
2018-09-03T12:36:19.760Z,21.30
2018-09-03T12:38:49.623Z,21.30
2018-09-03T12:41:18.302Z,21.30
2018-09-03T12:43:46.613Z,21.40
2018-09-03T12:46:14.854Z,21.40
2018-09-03T12:48:43.174Z,21.50
2018-09-03T12:51:11.459Z,21.60
2018-09-03T12:53:39.686Z,21.70
2018-09-03T12:56:08.365Z,21.90
2018-09-03T12:58:36.657Z,22.00
2018-09-03T13:01:04.915Z,22.10
2018-09-03T13:03:33.203Z,22.20
2018-09-03T13:06:01.441Z,22.40
2018-09-03T13:08:30.153Z,22.40
2018-09-03T13:10:58.951Z,22.50
2018-09-03T13:13:27.612Z,22.70
2018-09-03T13:15:55.857Z,22.80
2018-09-03T13:18:24.218Z,22.90
2018-09-03T13:20:52.501Z,22.90
2018-09-03T13:23:20.760Z,22.80
2018-09-03T13:25:49.332Z,22.80
2018-09-03T13:28:17.636Z,22.80
2018-09-03T13:30:46.331Z,23.20
2018-09-03T13:33:15.018Z,23.60
2018-09-03T13:35:43.242Z,23.70
2018-09-03T13:38:11.611Z,23.80
2018-09-03T13:40:40.963Z,24.20
2018-09-03T13:43:09.179Z,24.40
2018-09-03T13:45:37.440Z,24.60
2018-09-03T13:48:05.696Z,24.40
2018-09-03T13:50:33.979Z,24.50
2018-09-03T13:53:02.193Z,24.00
2018-09-03T13:55:30.667Z,23.80
2018-09-03T13:57:58.894Z,23.80
2018-09-03T14:00:27.216Z,23.90
2018-09-03T14:02:55.818Z,23.90
2018-09-03T14:05:24.260Z,23.70
2018-09-03T14:07:52.506Z,23.60
2018-09-03T14:10:20.835Z,23.40
2018-09-03T14:12:49.075Z,23.60
2018-09-03T14:15:17.300Z,23.60
2018-09-03T14:17:46.137Z,23.60
2018-09-03T14:20:14.413Z,23.70
2018-09-03T14:22:42.659Z,23.60
2018-09-03T14:25:10.974Z,23.90
2018-09-03T14:27:39.246Z,24.00
2018-09-03T14:30:08.422Z,23.80
2018-09-03T14:32:37.039Z,23.80
2018-09-03T14:35:05.628Z,23.50
2018-09-03T14:37:33.835Z,23.60
2018-09-03T14:40:02.266Z,23.70
2018-09-03T14:42:30.552Z,23.80
2018-09-03T14:44:58.859Z,23.90
2018-09-03T14:47:27.134Z,24.00
2018-09-03T14:49:55.449Z,24.00
2018-09-03T14:52:24.518Z,24.00
2018-09-03T14:54:52.797Z,24.00
2018-09-03T14:57:20.992Z,24.00
2018-09-03T14:59:50.817Z,24.00
2018-09-03T15:02:20.195Z,23.90
2018-09-03T15:04:50.159Z,24.00
2018-09-03T15:07:19.249Z,24.00
2018-09-03T15:09:47.586Z,23.70
2018-09-03T15:12:15.784Z,23.70
2018-09-03T15:14:44.169Z,23.60
2018-09-03T15:17:12.606Z,23.60
2018-09-03T15:19:40.883Z,23.60
2018-09-03T15:22:09.144Z,23.60
2018-09-03T15:24:37.373Z,23.50
2018-09-03T15:27:06.236Z,23.40
2018-09-03T15:29:34.478Z,23.50
2018-09-03T15:32:03.072Z,23.50
2018-09-03T15:34:32.259Z,23.40
2018-09-03T15:37:01.746Z,23.30
2018-09-03T15:39:30.039Z,23.20
2018-09-03T15:41:59.554Z,23.20
2018-09-03T15:44:27.963Z,23.10
2018-09-03T15:46:57.178Z,23.20
2018-09-03T15:49:25.425Z,23.10
2018-09-03T15:51:53.650Z,23.10
2018-09-03T15:54:21.969Z,23.30
2018-09-03T15:56:50.419Z,23.30
2018-09-03T15:59:18.803Z,23.30
2018-09-03T16:01:47.689Z,23.20
2018-09-03T16:04:16.032Z,23.30
2018-09-03T16:06:44.540Z,23.30
2018-09-03T16:09:13.113Z,23.30
2018-09-03T16:11:41.587Z,23.40
2018-09-03T16:14:09.963Z,23.30
2018-09-03T16:16:38.255Z,23.30
2018-09-03T16:19:06.543Z,23.40
2018-09-03T16:21:35.103Z,23.30
2018-09-03T16:24:04.367Z,23.20
2018-09-03T16:26:32.659Z,23.10
2018-09-03T16:29:00.910Z,23.10
2018-09-03T16:31:29.292Z,23.10
2018-09-03T16:33:57.561Z,23.10
2018-09-03T16:36:26.018Z,23.00
2018-09-03T16:38:54.302Z,22.90
2018-09-03T16:41:22.911Z,22.90
2018-09-03T16:43:51.150Z,22.90
2018-09-03T16:46:19.613Z,22.70
2018-09-03T16:48:47.880Z,22.80
2018-09-03T16:51:16.495Z,22.80
2018-09-03T16:53:45.018Z,22.70
2018-09-03T16:56:13.286Z,22.60
2018-09-03T16:58:41.591Z,22.50
2018-09-03T17:01:09.991Z,22.50
2018-09-03T17:03:38.179Z,22.50
2018-09-03T17:06:06.557Z,22.50
2018-09-03T17:08:35.453Z,22.50
2018-09-03T17:11:03.661Z,22.40
2018-09-03T17:13:31.904Z,22.40
2018-09-03T17:16:00.118Z,22.40
2018-09-03T17:18:28.334Z,22.40
2018-09-03T17:20:56.634Z,22.30
2018-09-03T17:23:24.929Z,22.30
2018-09-03T17:25:53.252Z,22.20
2018-09-03T17:28:21.486Z,22.20
2018-09-03T17:30:49.759Z,22.20
2018-09-03T17:33:18.055Z,22.20
2018-09-03T17:35:46.466Z,22.20
2018-09-03T17:38:15.164Z,22.10
2018-09-03T17:40:44.635Z,22.00
2018-09-03T17:43:13.222Z,22.00
2018-09-03T17:45:42.146Z,22.00
2018-09-03T17:48:11.325Z,22.00
2018-09-03T17:50:40.543Z,21.90
2018-09-03T17:53:09.199Z,21.80
2018-09-03T17:55:37.481Z,21.70
2018-09-03T17:58:06.025Z,21.70
2018-09-03T18:00:34.433Z,21.70
2018-09-03T18:03:02.835Z,21.70
2018-09-03T18:05:31.087Z,21.60
2018-09-03T18:08:00.146Z,21.60
2018-09-03T18:10:29.065Z,21.60
2018-09-03T18:12:57.335Z,21.50
2018-09-03T18:15:25.694Z,21.40
2018-09-03T18:17:53.926Z,21.40
2018-09-03T18:20:22.194Z,21.40
2018-09-03T18:22:50.606Z,21.40
2018-09-03T18:25:18.860Z,21.30
2018-09-03T18:27:47.135Z,21.30
2018-09-03T18:30:16.391Z,21.30
2018-09-03T18:32:44.634Z,21.20
2018-09-03T18:35:13.006Z,21.20
2018-09-03T18:37:42.547Z,21.20
2018-09-03T18:40:10.929Z,21.20
2018-09-03T18:42:39.368Z,21.20
2018-09-03T18:45:08.963Z,21.20
2018-09-03T18:47:37.903Z,21.20
2018-09-03T18:50:07.956Z,21.10
2018-09-03T18:52:38.171Z,21.10
2018-09-03T18:55:07.318Z,21.10
2018-09-03T18:57:35.550Z,21.10
2018-09-03T19:00:04.761Z,21.20
2018-09-03T19:02:35.056Z,21.10
2018-09-03T19:05:03.562Z,21.10
2018-09-03T19:07:32.105Z,21.00
2018-09-03T19:10:00.346Z,21.00
2018-09-03T19:12:28.614Z,20.90
2018-09-03T19:14:57.068Z,21.00
2018-09-03T19:17:25.390Z,20.90
2018-09-03T19:19:54.562Z,20.90
2018-09-03T19:22:22.952Z,21.00
2018-09-03T19:24:51.306Z,20.90
2018-09-03T19:27:19.635Z,20.90
2018-09-03T19:29:48.623Z,20.90
2018-09-03T19:32:16.930Z,20.80
2018-09-03T19:34:46.284Z,20.70
2018-09-03T19:37:15.364Z,20.60
2018-09-03T19:39:45.766Z,20.60
2018-09-03T19:42:14.300Z,20.60
2018-09-03T19:44:43.441Z,20.60
2018-09-03T19:47:12.039Z,20.60
2018-09-03T19:49:42.644Z,20.50
2018-09-03T19:52:11.272Z,20.50
2018-09-03T19:54:40.425Z,20.40
2018-09-03T19:57:08.691Z,20.40
2018-09-03T19:59:37.831Z,20.40
2018-09-03T20:02:06.577Z,20.40
2018-09-03T20:04:35.145Z,20.30
2018-09-03T20:07:03.798Z,20.20
2018-09-03T20:09:32.123Z,20.20
2018-09-03T20:12:02.126Z,20.20
2018-09-03T20:14:31.645Z,20.20
2018-09-03T20:17:02.305Z,20.20
2018-09-03T20:19:33.622Z,20.20
2018-09-03T20:22:02.230Z,20.20
2018-09-03T20:24:33.966Z,20.20
2018-09-03T20:27:05.657Z,20.10
2018-09-03T20:29:35.314Z,20.00
2018-09-03T20:32:03.622Z,20.00
2018-09-03T20:34:32.613Z,20.10
2018-09-03T20:37:02.458Z,20.10
2018-09-03T20:39:32.299Z,20.00
2018-09-03T20:42:04.305Z,19.90
2018-09-03T20:44:33.798Z,19.90
2018-09-03T20:47:02.452Z,19.90
2018-09-03T20:49:35.386Z,19.80
2018-09-03T20:52:05.226Z,19.80
2018-09-03T20:54:34.404Z,19.80
2018-09-03T20:57:02.617Z,19.80
2018-09-03T20:59:30.861Z,19.80
2018-09-03T21:01:59.042Z,19.80
2018-09-03T21:04:27.238Z,19.80
2018-09-03T21:06:55.429Z,19.80
2018-09-03T21:09:23.849Z,19.70
2018-09-03T21:11:52.036Z,19.70
2018-09-03T21:14:20.244Z,19.60
2018-09-03T21:17:01.927Z,19.60
2018-09-03T21:19:30.145Z,19.70
2018-09-03T21:21:58.469Z,19.60
2018-09-03T21:24:26.633Z,19.60
2018-09-03T21:26:55.218Z,19.60
2018-09-03T21:29:23.469Z,19.60
2018-09-03T21:31:51.742Z,19.60
2018-09-03T21:34:19.963Z,19.50
2018-09-03T21:36:48.193Z,19.50
2018-09-03T21:39:16.695Z,19.50
2018-09-03T21:41:44.830Z,19.50
2018-09-03T21:44:13.031Z,19.60
2018-09-03T21:46:41.260Z,19.50
2018-09-03T21:49:09.622Z,19.50
2018-09-03T21:51:37.826Z,19.50
2018-09-03T21:54:06.399Z,19.40
2018-09-03T21:56:34.724Z,19.40
2018-09-03T21:59:02.967Z,19.40
2018-09-03T22:01:31.271Z,19.30
2018-09-03T22:03:59.469Z,19.30
2018-09-03T22:06:28.694Z,19.30
2018-09-03T22:08:56.924Z,19.30
2018-09-03T22:11:25.157Z,19.30
2018-09-03T22:13:53.382Z,19.30
2018-09-03T22:16:21.725Z,19.30
2018-09-03T22:18:49.921Z,19.30
2018-09-03T22:21:18.123Z,19.30
2018-09-03T22:23:46.459Z,19.30
2018-09-03T22:26:14.676Z,19.30
2018-09-03T22:28:42.869Z,19.30
2018-09-03T22:31:11.168Z,19.20
2018-09-03T22:33:39.365Z,19.20
2018-09-03T22:36:07.598Z,19.20
2018-09-03T22:38:35.949Z,19.20
2018-09-03T22:41:04.950Z,19.10
2018-09-03T22:43:33.186Z,19.20
2018-09-03T22:46:01.877Z,19.20
2018-09-03T22:48:30.071Z,19.10
2018-09-03T22:50:58.263Z,19.10
2018-09-03T22:53:26.797Z,19.20
2018-09-03T22:55:55.012Z,19.20
2018-09-03T22:58:24.181Z,19.20
2018-09-03T23:00:52.465Z,19.20
2018-09-03T23:03:20.702Z,19.10
2018-09-03T23:05:48.915Z,19.10
2018-09-03T23:08:17.134Z,19.10
2018-09-03T23:10:45.349Z,19.10
2018-09-03T23:13:13.546Z,19.00
2018-09-03T23:15:46.257Z,19.00
2018-09-03T23:18:14.486Z,19.00
2018-09-03T23:20:42.720Z,19.00
2018-09-03T23:23:11.246Z,19.00
2018-09-03T23:25:39.454Z,19.00
2018-09-03T23:28:07.663Z,19.00
2018-09-03T23:30:35.865Z,19.00
2018-09-03T23:33:04.058Z,19.00
2018-09-03T23:35:32.262Z,19.00
2018-09-03T23:38:00.593Z,19.00
2018-09-03T23:40:28.826Z,19.00
2018-09-03T23:42:57.042Z,19.00
2018-09-03T23:45:25.429Z,18.90
2018-09-03T23:47:53.677Z,18.90
2018-09-03T23:50:21.894Z,18.90
2018-09-03T23:52:50.578Z,18.90
2018-09-03T23:55:18.765Z,19.00
2018-09-03T23:57:46.965Z,19.00
